createdAt,value
2019-04-03T00:00:43.593Z,11.60
2019-04-03T00:03:16.006Z,11.50
2019-04-03T00:05:48.462Z,11.60
2019-04-03T00:08:20.961Z,11.60
2019-04-03T00:10:53.242Z,11.70
2019-04-03T00:13:25.576Z,11.70
2019-04-03T00:15:57.943Z,11.70
2019-04-03T00:18:30.510Z,11.60
2019-04-03T00:21:02.943Z,11.60
2019-04-03T00:23:35.166Z,11.60
2019-04-03T00:26:07.410Z,11.60
2019-04-03T00:28:39.794Z,11.60
2019-04-03T00:31:12.107Z,11.60
2019-04-03T00:33:44.447Z,11.60
2019-04-03T00:36:16.765Z,11.70
2019-04-03T00:38:49.179Z,11.60
2019-04-03T00:41:22.710Z,11.70
2019-04-03T00:43:55.580Z,11.70
2019-04-03T00:46:27.830Z,11.70
2019-04-03T00:49:00.298Z,11.60
2019-04-03T00:51:32.732Z,11.70
2019-04-03T00:54:05.186Z,11.60
2019-04-03T00:56:37.743Z,11.60
2019-04-03T00:59:09.940Z,11.60
2019-04-03T01:01:42.572Z,11.60
2019-04-03T01:04:15.271Z,11.60
2019-04-03T01:06:47.822Z,11.60
2019-04-03T01:09:20.029Z,11.60
2019-04-03T01:11:52.296Z,11.50
2019-04-03T01:14:24.739Z,11.40
2019-04-03T01:16:57.346Z,11.40
2019-04-03T01:19:29.703Z,11.40
2019-04-03T01:22:02.009Z,11.40
2019-04-03T01:24:34.372Z,11.30
2019-04-03T01:27:06.688Z,11.40
2019-04-03T01:29:38.953Z,11.40
2019-04-03T01:32:11.322Z,11.40
2019-04-03T01:34:44.037Z,11.40
2019-04-03T01:37:16.813Z,11.50
2019-04-03T01:39:51.231Z,11.40
2019-04-03T01:42:23.928Z,11.40
2019-04-03T01:44:56.487Z,11.30
2019-04-03T01:47:28.784Z,11.30
2019-04-03T01:50:01.415Z,11.30
2019-04-03T01:52:33.707Z,11.30
2019-04-03T01:55:06.181Z,11.30
2019-04-03T01:57:38.370Z,11.30
2019-04-03T02:00:11.294Z,11.20
2019-04-03T02:02:43.935Z,11.30
2019-04-03T02:05:16.387Z,11.30
2019-04-03T02:07:48.689Z,11.20
2019-04-03T02:10:22.208Z,11.20
2019-04-03T02:12:54.629Z,11.10
2019-04-03T02:15:27.164Z,11.00
2019-04-03T02:17:59.698Z,11.00
2019-04-03T02:20:32.188Z,11.00
2019-04-03T02:23:04.629Z,11.00
2019-04-03T02:25:37.231Z,10.90
2019-04-03T02:28:09.718Z,10.90
2019-04-03T02:30:44.775Z,10.90
2019-04-03T02:33:16.490Z,10.90
2019-04-03T02:35:48.977Z,10.90
2019-04-03T02:38:22.598Z,10.90
2019-04-03T02:40:55.566Z,10.80
2019-04-03T02:43:27.877Z,10.90
2019-04-03T02:46:00.205Z,10.90
2019-04-03T02:48:32.714Z,11.00
2019-04-03T02:51:05.190Z,11.00
2019-04-03T02:53:37.733Z,10.80
2019-04-03T02:56:12.706Z,10.80
2019-04-03T02:58:44.316Z,10.80
2019-04-03T03:01:16.890Z,10.90
2019-04-03T03:03:50.079Z,10.70
2019-04-03T03:06:23.072Z,10.70
2019-04-03T03:08:57.094Z,10.80
2019-04-03T03:11:29.643Z,10.70
2019-04-03T03:14:02.428Z,10.60
2019-04-03T03:16:35.290Z,10.70
2019-04-03T03:19:07.700Z,10.70
2019-04-03T03:21:43.862Z,10.70
2019-04-03T03:24:15.993Z,10.60
2019-04-03T03:26:48.409Z,10.50
2019-04-03T03:29:25.240Z,10.60
2019-04-03T03:32:08.416Z,10.50
2019-04-03T03:34:47.566Z,10.60
2019-04-03T03:37:05.817Z,10.70
2019-04-03T03:39:38.464Z,10.60
2019-04-03T03:42:11.632Z,10.50
2019-04-03T03:44:46.013Z,10.50
2019-04-03T03:47:18.390Z,10.50
2019-04-03T03:49:51.159Z,10.60
2019-04-03T03:52:24.371Z,10.70
2019-04-03T03:54:57.585Z,10.70
2019-04-03T03:57:30.236Z,10.70
2019-04-03T04:00:03.676Z,10.70
2019-04-03T04:02:37.571Z,10.60
2019-04-03T04:05:11.877Z,10.70
2019-04-03T04:07:44.645Z,10.60
2019-04-03T04:10:17.078Z,10.60
2019-04-03T04:12:49.698Z,10.60
2019-04-03T04:15:22.271Z,10.60
2019-04-03T04:17:54.716Z,10.40
2019-04-03T04:20:27.716Z,10.50
2019-04-03T04:23:00.718Z,10.50
2019-04-03T04:25:33.916Z,10.40
2019-04-03T04:28:08.452Z,10.30
2019-04-03T04:30:43.068Z,10.40
2019-04-03T04:33:16.984Z,10.40
2019-04-03T04:35:52.191Z,10.40
2019-04-03T04:38:26.186Z,10.40
2019-04-03T04:41:01.365Z,10.40
2019-04-03T04:43:32.550Z,10.40
2019-04-03T04:46:05.290Z,10.50
2019-04-03T04:48:37.857Z,10.50
2019-04-03T04:51:10.474Z,10.50
2019-04-03T04:53:42.783Z,10.50
2019-04-03T04:56:15.261Z,10.40
2019-04-03T04:58:47.542Z,10.50
2019-04-03T05:01:19.964Z,10.40
2019-04-03T05:03:53.924Z,10.40
2019-04-03T05:06:28.597Z,10.40
2019-04-03T05:09:03.276Z,10.40
2019-04-03T05:11:35.000Z,10.40
2019-04-03T05:14:07.762Z,10.40
2019-04-03T05:16:40.204Z,10.40
2019-04-03T05:19:18.481Z,10.40
2019-04-03T05:21:47.198Z,10.40
2019-04-03T05:24:19.562Z,10.50
2019-04-03T05:26:53.095Z,10.40
2019-04-03T05:29:25.430Z,10.40
2019-04-03T05:31:58.094Z,10.40
2019-04-03T05:34:30.385Z,10.40
2019-04-03T05:37:02.961Z,10.40
2019-04-03T05:39:35.773Z,10.50
2019-04-03T05:42:08.158Z,10.50
2019-04-03T05:44:40.928Z,10.40
2019-04-03T05:47:13.311Z,10.50
2019-04-03T05:49:47.030Z,10.50
2019-04-03T05:52:19.447Z,10.40
2019-04-03T05:54:51.895Z,10.30
2019-04-03T05:57:24.088Z,10.40
2019-04-03T06:00:00.660Z,10.50
2019-04-03T06:02:30.899Z,10.60
2019-04-03T06:05:06.455Z,10.60
2019-04-03T06:07:38.444Z,10.60
2019-04-03T06:10:10.895Z,10.50
2019-04-03T06:12:45.377Z,10.60
2019-04-03T06:15:17.660Z,10.60
2019-04-03T06:17:51.221Z,10.70
2019-04-03T06:20:24.396Z,10.80
2019-04-03T06:22:56.608Z,10.80
2019-04-03T06:25:30.473Z,11.00
2019-04-03T06:28:06.080Z,10.90
2019-04-03T06:30:38.342Z,11.00
2019-04-03T06:33:11.094Z,10.90
2019-04-03T06:35:45.296Z,11.00
2019-04-03T06:38:17.976Z,11.00
2019-04-03T06:40:50.745Z,11.10
2019-04-03T06:43:23.100Z,11.30
2019-04-03T06:45:57.546Z,11.50
2019-04-03T06:48:29.731Z,11.50
2019-04-03T06:51:01.964Z,11.50
2019-04-03T06:53:34.436Z,11.60
2019-04-03T06:56:08.688Z,11.60
2019-04-03T06:58:43.600Z,11.60
2019-04-03T07:01:15.383Z,11.70
2019-04-03T07:03:48.082Z,11.70
2019-04-03T07:06:20.192Z,11.90
2019-04-03T07:08:52.711Z,11.90
2019-04-03T07:11:25.033Z,12.00
2019-04-03T07:13:57.545Z,11.90
2019-04-03T07:16:30.262Z,12.00
2019-04-03T07:19:02.629Z,12.20
2019-04-03T07:21:35.283Z,12.30
2019-04-03T07:24:07.697Z,12.50
2019-04-03T07:26:40.277Z,12.60
2019-04-03T07:29:15.812Z,12.70
2019-04-03T07:31:47.419Z,12.80
2019-04-03T07:34:19.999Z,12.80
2019-04-03T07:36:52.763Z,12.80
2019-04-03T07:39:26.363Z,12.70
2019-04-03T07:41:58.659Z,12.80
2019-04-03T07:44:31.592Z,12.70
2019-04-03T07:47:04.733Z,12.70
2019-04-03T07:49:37.696Z,12.60
2019-04-03T07:52:13.304Z,12.70
2019-04-03T07:54:46.331Z,12.80
2019-04-03T07:57:19.100Z,12.90
2019-04-03T07:59:51.610Z,13.00
2019-04-03T08:02:24.133Z,13.20
2019-04-03T08:05:00.287Z,13.40
2019-04-03T08:07:31.092Z,13.50
2019-04-03T08:10:03.984Z,13.60
2019-04-03T08:12:36.472Z,13.60
2019-04-03T08:15:09.358Z,13.70
2019-04-03T08:17:42.112Z,13.70
2019-04-03T08:20:15.125Z,13.90
2019-04-03T08:22:48.335Z,14.00
2019-04-03T08:25:20.840Z,13.90
2019-04-03T08:27:55.320Z,14.00
2019-04-03T08:30:27.568Z,14.20
2019-04-03T08:33:00.112Z,14.30
2019-04-03T08:35:34.544Z,14.30
2019-04-03T08:38:06.542Z,14.40
2019-04-03T08:40:39.343Z,14.50
2019-04-03T08:43:11.932Z,14.50
2019-04-03T08:45:44.579Z,14.40
2019-04-03T08:48:18.104Z,14.50
2019-04-03T08:50:50.857Z,14.50
2019-04-03T08:53:23.523Z,14.70
2019-04-03T08:55:56.676Z,14.70
2019-04-03T08:58:29.080Z,14.70
2019-04-03T09:01:03.685Z,14.70
2019-04-03T09:03:35.877Z,14.70
2019-04-03T09:06:09.165Z,14.70
2019-04-03T09:08:41.984Z,14.80
2019-04-03T09:11:15.300Z,14.90
2019-04-03T09:13:48.259Z,14.90
2019-04-03T09:16:21.174Z,15.00
2019-04-03T09:18:53.634Z,15.20
2019-04-03T09:21:26.311Z,15.10
2019-04-03T09:23:58.633Z,15.20
2019-04-03T09:26:34.885Z,15.10
2019-04-03T09:31:38.415Z,15.40
2019-04-03T09:34:11.105Z,15.50
2019-04-03T09:36:43.640Z,15.30
2019-04-03T09:39:16.220Z,15.50
2019-04-03T09:41:50.944Z,15.70
2019-04-03T09:44:25.750Z,15.90
2019-04-03T09:47:02.902Z,15.90
2019-04-03T09:49:38.014Z,16.00
2019-04-03T09:52:09.452Z,15.90
2019-04-03T09:54:42.211Z,15.90
2019-04-03T09:57:14.509Z,15.90
2019-04-03T09:59:47.304Z,15.90
2019-04-03T10:02:20.326Z,16.00
2019-04-03T10:07:25.836Z,16.30
2019-04-03T10:09:58.493Z,16.50
2019-04-03T10:12:32.363Z,16.60
2019-04-03T10:15:06.501Z,16.70
2019-04-03T10:17:39.615Z,16.60
2019-04-03T10:20:13.342Z,16.70
2019-04-03T10:22:45.623Z,16.60
2019-04-03T10:25:18.511Z,16.70
2019-04-03T10:27:51.292Z,16.80
2019-04-03T10:30:24.030Z,16.70
2019-04-03T10:32:58.666Z,16.80
2019-04-03T10:35:30.834Z,17.10
2019-04-03T10:38:03.390Z,17.20
2019-04-03T10:40:36.418Z,17.10
2019-04-03T10:43:08.882Z,17.00
2019-04-03T10:45:41.654Z,17.00
2019-04-03T10:48:14.624Z,17.00
2019-04-03T10:50:47.194Z,17.10
2019-04-03T10:53:20.014Z,17.10
2019-04-03T10:55:53.368Z,17.20
2019-04-03T10:58:25.858Z,17.30
2019-04-03T11:00:59.082Z,17.40
2019-04-03T11:03:32.119Z,17.30
2019-04-03T11:06:05.033Z,17.40
2019-04-03T11:08:37.501Z,17.40
2019-04-03T11:11:09.952Z,17.50
2019-04-03T11:13:42.692Z,17.50
2019-04-03T11:16:15.951Z,17.60
2019-04-03T11:18:58.521Z,17.90
2019-04-03T11:21:22.745Z,18.20
2019-04-03T11:23:55.866Z,18.20
2019-04-03T11:26:28.242Z,18.20
2019-04-03T11:29:00.809Z,18.20
2019-04-03T11:31:39.301Z,18.10
2019-04-03T11:34:07.655Z,18.10
2019-04-03T11:36:40.104Z,18.30
2019-04-03T11:39:15.634Z,18.50
2019-04-03T11:41:46.913Z,18.50
2019-04-03T11:44:19.128Z,18.50
2019-04-03T11:46:51.498Z,18.70
2019-04-03T11:49:24.230Z,18.80
2019-04-03T11:51:56.580Z,18.80
2019-04-03T11:54:29.025Z,18.70
2019-04-03T11:57:02.180Z,18.80
2019-04-03T11:59:34.845Z,18.90
2019-04-03T12:02:08.618Z,19.10
2019-04-03T12:04:43.153Z,19.00
2019-04-03T12:07:16.265Z,18.90
2019-04-03T12:09:48.664Z,18.90
2019-04-03T12:12:21.134Z,18.90
2019-04-03T12:14:53.708Z,19.00
2019-04-03T12:17:27.352Z,19.10
2019-04-03T12:20:00.463Z,19.10
2019-04-03T12:22:33.033Z,18.90
2019-04-03T12:25:06.041Z,18.80
2019-04-03T12:27:38.760Z,18.90
2019-04-03T12:30:11.482Z,19.00
2019-04-03T12:32:48.657Z,18.90
2019-04-03T12:35:18.529Z,19.00
2019-04-03T12:37:51.263Z,18.90
2019-04-03T12:40:24.048Z,18.90
2019-04-03T12:42:56.802Z,18.70
2019-04-03T12:45:29.401Z,18.60
2019-04-03T12:48:02.235Z,18.60
2019-04-03T12:50:34.666Z,18.60
2019-04-03T12:53:07.157Z,18.50
2019-04-03T12:55:42.240Z,18.60
2019-04-03T12:58:13.969Z,18.70
2019-04-03T13:00:46.749Z,18.80
2019-04-03T13:03:19.533Z,18.80
2019-04-03T13:05:52.077Z,18.90
2019-04-03T13:08:25.118Z,18.80
2019-04-03T13:10:57.453Z,18.70
2019-04-03T13:13:30.350Z,18.70
2019-04-03T13:16:02.894Z,18.90
2019-04-03T13:18:35.499Z,18.90
2019-04-03T13:21:09.260Z,19.00
2019-04-03T13:23:45.150Z,19.10
2019-04-03T13:26:15.932Z,19.10
2019-04-03T13:28:48.446Z,19.10
2019-04-03T13:31:20.957Z,19.10
2019-04-03T13:33:53.882Z,19.10
2019-04-03T13:36:26.810Z,19.00
2019-04-03T13:39:01.287Z,18.90
2019-04-03T13:41:34.799Z,19.00
2019-04-03T13:44:07.182Z,18.90
2019-04-03T13:46:39.863Z,19.10
2019-04-03T13:49:12.742Z,19.10
2019-04-03T13:51:45.306Z,19.10
2019-04-03T13:54:17.865Z,18.90
2019-04-03T13:56:52.863Z,18.80
2019-04-03T13:59:25.786Z,18.70
2019-04-03T14:01:59.539Z,18.80
2019-04-03T14:04:32.409Z,18.90
2019-04-03T14:07:07.328Z,18.90
2019-04-03T14:09:39.368Z,18.90
2019-04-03T14:12:12.138Z,19.00
2019-04-03T14:14:45.230Z,19.10
2019-04-03T14:17:18.819Z,19.10
2019-04-03T14:19:52.387Z,19.10
2019-04-03T14:22:25.280Z,19.00
2019-04-03T14:24:57.845Z,19.10
2019-04-03T14:27:31.270Z,19.20
2019-04-03T14:30:04.640Z,19.20
2019-04-03T14:32:37.827Z,19.30
2019-04-03T14:35:40.480Z,19.30
2019-04-03T14:37:44.817Z,19.40
2019-04-03T14:40:17.773Z,19.40
2019-04-03T14:42:50.857Z,19.30
2019-04-03T14:45:23.526Z,19.30
2019-04-03T14:47:56.378Z,19.30
2019-04-03T14:50:29.453Z,19.30
2019-04-03T14:53:01.959Z,19.20
2019-04-03T14:55:45.850Z,19.20
2019-04-03T14:58:08.850Z,19.20
2019-04-03T15:00:41.214Z,19.30
2019-04-03T15:03:13.694Z,19.50
2019-04-03T15:05:46.370Z,19.60
2019-04-03T15:08:21.953Z,19.60
2019-04-03T15:10:53.563Z,19.50
2019-04-03T15:13:25.825Z,19.30
2019-04-03T15:16:00.366Z,19.30
2019-04-03T15:18:32.618Z,19.40
2019-04-03T15:21:05.116Z,19.40
2019-04-03T15:23:40.779Z,19.20
2019-04-03T15:26:11.713Z,19.30
2019-04-03T15:28:44.351Z,19.40
2019-04-03T15:31:17.190Z,19.30
2019-04-03T15:33:49.809Z,19.30
2019-04-03T15:36:24.995Z,19.20
2019-04-03T15:38:59.251Z,19.20
2019-04-03T15:41:34.189Z,19.30
2019-04-03T15:44:06.156Z,19.20
2019-04-03T15:46:38.651Z,19.00
2019-04-03T15:49:11.159Z,18.90
2019-04-03T15:51:43.630Z,19.00
2019-04-03T15:54:16.226Z,19.00
2019-04-03T15:56:48.760Z,19.00
2019-04-03T15:59:21.118Z,19.00
2019-04-03T16:01:53.685Z,19.00
2019-04-03T16:04:26.994Z,19.00
2019-04-03T16:07:01.837Z,18.90
2019-04-03T16:09:34.753Z,18.80
2019-04-03T16:12:07.356Z,18.80
2019-04-03T16:14:39.967Z,18.70
2019-04-03T16:17:12.315Z,18.70
2019-04-03T16:19:45.333Z,18.60
2019-04-03T16:22:18.166Z,18.50
2019-04-03T16:24:53.196Z,18.50
2019-04-03T16:27:27.687Z,18.40
2019-04-03T16:30:00.508Z,18.40
2019-04-03T16:32:33.081Z,18.40
2019-04-03T16:35:06.437Z,18.30
2019-04-03T16:37:39.286Z,18.30
2019-04-03T16:40:12.619Z,18.30
2019-04-03T16:45:19.479Z,18.10
2019-04-03T16:47:51.985Z,18.20
2019-04-03T16:50:27.293Z,18.20
2019-04-03T16:52:59.328Z,18.20
2019-04-03T16:55:31.693Z,18.10
2019-04-03T16:58:04.453Z,18.00
2019-04-03T17:00:38.564Z,17.90
2019-04-03T17:03:10.968Z,17.90
2019-04-03T17:05:44.592Z,17.80
2019-04-03T17:08:17.537Z,17.70
2019-04-03T17:10:50.206Z,17.70
2019-04-03T17:13:22.804Z,17.60
2019-04-03T17:15:56.071Z,17.60
2019-04-03T17:18:28.508Z,17.50
2019-04-03T17:21:01.090Z,17.50
2019-04-03T17:23:33.847Z,17.40
2019-04-03T17:26:09.308Z,17.30
2019-04-03T17:28:41.626Z,17.30
2019-04-03T17:31:14.583Z,17.30
2019-04-03T17:33:47.937Z,17.20
2019-04-03T17:36:20.340Z,17.20
2019-04-03T17:38:52.852Z,17.10
2019-04-03T17:41:25.284Z,17.10
2019-04-03T17:43:57.735Z,17.10
2019-04-03T17:46:30.275Z,17.00
2019-04-03T17:49:03.213Z,17.00
2019-04-03T17:51:35.828Z,16.90
2019-04-03T17:54:08.425Z,16.80
2019-04-03T17:59:18.161Z,16.70
2019-04-03T18:01:50.647Z,16.70
2019-04-03T18:04:23.538Z,16.60
2019-04-03T18:06:57.508Z,16.60
2019-04-03T18:09:30.410Z,16.50
2019-04-03T18:12:02.957Z,16.50
2019-04-03T18:14:35.556Z,16.40
2019-04-03T18:17:09.449Z,16.40
2019-04-03T18:19:42.348Z,16.40
2019-04-03T18:22:14.745Z,16.40
2019-04-03T18:24:47.372Z,16.40
2019-04-03T18:27:19.779Z,16.40
2019-04-03T18:29:52.131Z,16.40
2019-04-03T18:32:24.393Z,16.40
2019-04-03T18:34:57.090Z,16.40
2019-04-03T18:37:29.543Z,16.30
2019-04-03T18:40:02.101Z,16.20
2019-04-03T18:42:34.692Z,16.20
2019-04-03T18:45:07.507Z,16.10
2019-04-03T18:47:41.538Z,16.10
2019-04-03T18:50:14.353Z,16.10
2019-04-03T18:52:46.909Z,16.10
2019-04-03T18:55:19.486Z,16.10
2019-04-03T18:57:52.138Z,16.10
2019-04-03T19:00:24.554Z,16.10
2019-04-03T19:02:56.909Z,16.00
2019-04-03T19:05:29.385Z,16.00
2019-04-03T19:10:36.189Z,15.30
2019-04-03T19:15:41.458Z,15.70
2019-04-03T19:18:19.681Z,15.80
2019-04-03T19:20:48.510Z,15.70
2019-04-03T19:23:20.855Z,15.70
2019-04-03T19:25:55.012Z,15.70
2019-04-03T19:28:27.816Z,15.70
2019-04-03T19:31:00.274Z,15.60
2019-04-03T19:33:32.908Z,15.60
2019-04-03T19:36:05.340Z,15.50
2019-04-03T19:38:37.920Z,15.50
2019-04-03T19:41:11.833Z,15.50
2019-04-03T19:43:45.858Z,15.50
2019-04-03T19:46:19.036Z,15.50
2019-04-03T19:48:51.559Z,15.50
2019-04-03T19:51:23.978Z,15.50
2019-04-03T19:53:59.526Z,15.50
2019-04-03T19:56:30.549Z,15.50
2019-04-03T19:59:04.839Z,15.50
2019-04-03T20:01:39.042Z,15.50
2019-04-03T20:04:11.359Z,15.50
2019-04-03T20:06:43.747Z,15.50
2019-04-03T20:09:17.732Z,15.40
2019-04-03T20:11:53.108Z,15.40
2019-04-03T20:14:24.447Z,15.40
2019-04-03T20:16:58.446Z,15.40
2019-04-03T20:19:30.954Z,15.30
2019-04-03T20:22:06.759Z,15.30
2019-04-03T20:24:37.592Z,15.30
2019-04-03T20:27:10.090Z,15.30
2019-04-03T20:29:42.359Z,15.30
2019-04-03T20:32:14.708Z,15.20
2019-04-03T20:34:47.027Z,15.20
2019-04-03T20:37:19.453Z,15.20
2019-04-03T20:39:52.018Z,15.10
2019-04-03T20:42:24.236Z,15.10
2019-04-03T20:44:56.667Z,15.10
2019-04-03T20:47:29.097Z,15.10
2019-04-03T20:50:01.660Z,15.10
2019-04-03T20:52:33.944Z,15.00
2019-04-03T20:55:07.002Z,15.00
2019-04-03T20:57:39.364Z,15.00
2019-04-03T21:00:12.370Z,15.00
2019-04-03T21:02:44.933Z,15.00
2019-04-03T21:05:18.671Z,15.00
2019-04-03T21:07:51.545Z,15.00
2019-04-03T21:10:23.868Z,15.00
2019-04-03T21:12:56.877Z,15.00
2019-04-03T21:15:29.445Z,15.00
2019-04-03T21:18:02.277Z,15.00
2019-04-03T21:20:34.546Z,15.00
2019-04-03T21:23:07.030Z,15.00
2019-04-03T21:25:40.723Z,15.00
2019-04-03T21:28:13.407Z,14.90
2019-04-03T21:30:45.716Z,15.00
2019-04-03T21:33:18.072Z,14.90
2019-04-03T21:35:50.480Z,14.90
2019-04-03T21:38:23.111Z,14.80
2019-04-03T21:40:55.936Z,14.80
2019-04-03T21:43:29.208Z,14.90
2019-04-03T21:46:02.418Z,14.80
2019-04-03T21:48:34.871Z,14.80
2019-04-03T21:51:07.255Z,14.80
2019-04-03T21:53:39.666Z,14.80
2019-04-03T21:56:12.069Z,14.70
2019-04-03T21:58:44.663Z,14.70
2019-04-03T22:01:20.701Z,14.70
2019-04-03T22:03:53.395Z,14.70
2019-04-03T22:06:27.605Z,14.70
2019-04-03T22:09:00.671Z,14.70
2019-04-03T22:11:35.545Z,14.70
2019-04-03T22:14:10.682Z,14.60
2019-04-03T22:16:41.435Z,14.60
2019-04-03T22:19:13.844Z,14.60
2019-04-03T22:21:46.535Z,14.60
2019-04-03T22:24:18.907Z,14.60
2019-04-03T22:26:51.336Z,14.50
2019-04-03T22:29:23.716Z,14.50
2019-04-03T22:31:56.088Z,14.40
2019-04-03T22:34:29.873Z,14.40
2019-04-03T22:37:04.548Z,14.40
2019-04-03T22:39:37.028Z,14.30
2019-04-03T22:42:10.708Z,14.30
2019-04-03T22:44:42.939Z,14.20
2019-04-03T22:47:15.173Z,14.20
2019-04-03T22:49:47.375Z,14.20
2019-04-03T22:52:19.621Z,14.20
2019-04-03T22:54:52.109Z,14.10
2019-04-03T22:57:24.911Z,14.20
2019-04-03T22:59:57.394Z,14.20
2019-04-03T23:02:29.836Z,14.20
2019-04-03T23:05:04.476Z,14.10
2019-04-03T23:07:37.054Z,14.20
2019-04-03T23:10:09.486Z,14.10
2019-04-03T23:12:41.876Z,14.10
2019-04-03T23:15:14.169Z,14.00
2019-04-03T23:17:46.648Z,14.00
2019-04-03T23:20:20.132Z,14.10
2019-04-03T23:22:56.301Z,14.00
2019-04-03T23:25:29.463Z,13.90
2019-04-03T23:28:03.045Z,13.90
2019-04-03T23:30:36.265Z,14.00
2019-04-03T23:33:08.551Z,13.90
2019-04-03T23:35:40.903Z,13.90
2019-04-03T23:38:13.447Z,13.90
2019-04-03T23:40:45.857Z,13.80
2019-04-03T23:43:18.429Z,13.80
2019-04-03T23:45:51.031Z,13.80
2019-04-03T23:48:23.561Z,13.70
2019-04-03T23:50:57.097Z,13.70
2019-04-03T23:53:31.976Z,13.70
2019-04-03T23:56:03.694Z,13.70
2019-04-03T23:58:35.995Z,13.60
